createdAt,value
2023-02-07T00:00:14.996Z,100152.72
2023-02-07T00:02:46.358Z,100147.50
2023-02-07T00:05:15.845Z,100162.59
2023-02-07T00:07:44.810Z,100168.97
2023-02-07T00:10:13.393Z,100161.44
2023-02-07T00:12:41.971Z,100144.69
2023-02-07T00:15:11.346Z,100153.59
2023-02-07T00:17:40.113Z,100150.63
2023-02-07T00:20:12.923Z,100153.13
2023-02-07T00:22:41.434Z,100149.66
2023-02-07T00:25:10.102Z,100143.06
2023-02-07T00:27:39.166Z,100143.94
2023-02-07T00:30:08.853Z,100132.63
2023-02-07T00:32:37.600Z,100094.91
2023-02-07T00:35:07.057Z,100120.81
2023-02-07T00:37:36.602Z,100121.59
2023-02-07T00:40:06.779Z,100138.59
2023-02-07T00:42:35.332Z,100125.84
2023-02-07T00:45:04.062Z,100133.97
2023-02-07T00:47:32.611Z,100128.00
2023-02-07T00:50:00.873Z,100127.88
2023-02-07T00:52:29.156Z,100139.13
2023-02-07T00:54:58.845Z,100137.66
2023-02-07T00:57:27.252Z,100149.84
2023-02-07T00:59:55.637Z,100146.06
2023-02-07T01:02:23.864Z,100160.47
2023-02-07T01:04:52.546Z,100139.19
2023-02-07T01:07:20.836Z,100142.47
2023-02-07T01:09:49.286Z,100124.69
2023-02-07T01:12:20.340Z,100120.22
2023-02-07T01:14:49.991Z,100119.63
2023-02-07T01:17:18.973Z,100141.41
2023-02-07T01:19:47.380Z,100162.38
2023-02-07T01:22:15.730Z,100153.19
2023-02-07T01:24:44.034Z,100175.72
2023-02-07T01:27:12.802Z,100167.41
2023-02-07T01:29:43.178Z,100171.22
2023-02-07T01:32:11.618Z,100170.16
2023-02-07T01:34:39.897Z,100161.63
2023-02-07T01:37:08.866Z,100173.72
2023-02-07T01:39:36.948Z,100169.25
2023-02-07T01:42:05.643Z,100167.53
2023-02-07T01:45:04.810Z,100167.53
2023-02-07T01:47:35.891Z,100152.50
2023-02-07T01:50:05.195Z,100160.63
2023-02-07T01:52:37.881Z,100148.59
2023-02-07T01:55:10.585Z,100157.53
2023-02-07T01:57:39.791Z,100147.31
2023-02-07T02:00:11.822Z,100134.84
2023-02-07T02:02:40.636Z,100124.19
2023-02-07T02:05:10.829Z,100127.56
2023-02-07T02:07:40.034Z,100108.41
2023-02-07T02:10:14.462Z,100134.84
2023-02-07T02:13:14.960Z,100133.81
2023-02-07T02:15:54.344Z,100133.44
2023-02-07T02:18:49.238Z,100121.91
2023-02-07T02:22:00.857Z,100130.28
2023-02-07T02:25:02.153Z,100134.91
2023-02-07T02:27:46.902Z,100139.34
2023-02-07T02:30:39.099Z,100150.72
2023-02-07T02:33:34.265Z,100146.50
2023-02-07T02:36:10.647Z,100130.59
2023-02-07T02:38:49.239Z,100135.34
2023-02-07T02:41:23.410Z,100136.88
2023-02-07T02:43:58.471Z,100130.13
2023-02-07T02:46:30.169Z,100125.97
2023-02-07T02:49:00.873Z,100122.09
2023-02-07T02:51:30.912Z,100134.94
2023-02-07T02:54:01.173Z,100133.72
2023-02-07T02:56:55.499Z,100136.03
2023-02-07T02:59:42.436Z,100133.41
2023-02-07T03:02:23.274Z,100115.34
2023-02-07T03:05:15.667Z,100120.56
2023-02-07T03:07:51.434Z,100117.41
2023-02-07T03:10:31.014Z,100105.22
2023-02-07T03:13:03.492Z,100106.19
2023-02-07T03:15:38.645Z,100097.50
2023-02-07T03:18:15.892Z,100098.13
2023-02-07T03:20:50.333Z,100111.19
2023-02-07T03:23:21.169Z,100115.03
2023-02-07T03:25:52.621Z,100115.47
2023-02-07T03:28:23.405Z,100114.47
2023-02-07T03:30:54.230Z,100117.34
2023-02-07T03:33:25.507Z,100116.16
2023-02-07T03:36:03.664Z,100101.59
2023-02-07T03:38:31.972Z,100117.50
2023-02-07T03:41:07.282Z,100109.56
2023-02-07T03:43:38.810Z,100114.19
2023-02-07T03:46:10.772Z,100113.63
2023-02-07T03:48:39.703Z,100112.09
2023-02-07T03:51:09.551Z,100103.31
2023-02-07T03:53:37.709Z,100108.59
2023-02-07T03:56:06.581Z,100117.56
2023-02-07T03:58:34.784Z,100130.44
2023-02-07T04:01:04.730Z,100116.34
2023-02-07T04:03:33.103Z,100117.78
2023-02-07T04:06:02.709Z,100125.28
2023-02-07T04:08:33.622Z,100126.50
2023-02-07T04:11:03.462Z,100129.78
2023-02-07T04:13:32.543Z,100124.53
2023-02-07T04:16:02.538Z,100133.91
2023-02-07T04:18:31.053Z,100131.84
2023-02-07T04:21:03.350Z,100137.94
2023-02-07T04:23:33.882Z,100117.56
2023-02-07T04:26:02.546Z,100144.47
2023-02-07T04:28:31.861Z,100142.19
2023-02-07T04:31:00.101Z,100130.09
2023-02-07T04:33:28.397Z,100131.75
2023-02-07T04:35:57.702Z,100120.38
2023-02-07T04:38:26.918Z,100111.47
2023-02-07T04:40:59.802Z,100115.28
2023-02-07T04:43:28.304Z,100119.31
2023-02-07T04:45:57.120Z,100115.28
2023-02-07T04:48:26.097Z,100120.59
2023-02-07T04:50:54.982Z,100119.53
2023-02-07T04:53:23.367Z,100129.53
2023-02-07T04:55:52.555Z,100124.97
2023-02-07T04:58:23.608Z,100112.00
2023-02-07T05:00:52.113Z,100119.06
2023-02-07T05:03:20.373Z,100119.63
2023-02-07T05:05:48.702Z,100120.41
2023-02-07T05:08:17.258Z,100102.75
2023-02-07T05:10:45.746Z,100118.53
2023-02-07T05:13:14.009Z,100122.47
2023-02-07T05:15:44.549Z,100118.63
2023-02-07T05:18:13.254Z,100125.84
2023-02-07T05:20:41.808Z,100118.97
2023-02-07T05:23:10.513Z,100112.00
2023-02-07T05:25:39.175Z,100114.28
2023-02-07T05:28:08.120Z,100119.59
2023-02-07T05:30:36.751Z,100108.13
2023-02-07T05:33:08.566Z,100123.41
2023-02-07T05:35:38.906Z,100125.34
2023-02-07T05:38:10.016Z,100121.25
2023-02-07T05:40:39.133Z,100135.59
2023-02-07T05:43:08.010Z,100139.31
2023-02-07T05:45:37.467Z,100132.00
2023-02-07T05:48:08.152Z,100142.59
2023-02-07T05:50:36.942Z,100156.53
2023-02-07T05:53:05.653Z,100142.38
2023-02-07T05:55:34.148Z,100159.56
2023-02-07T05:58:02.561Z,100167.63
2023-02-07T06:00:30.984Z,100173.16
2023-02-07T06:02:59.154Z,100174.16
2023-02-07T06:05:32.037Z,100190.91
2023-02-07T06:08:00.949Z,100188.25
2023-02-07T06:10:29.425Z,100180.41
2023-02-07T06:12:57.637Z,100175.00
2023-02-07T06:15:26.291Z,100170.81
2023-02-07T06:17:54.800Z,100177.59
2023-02-07T06:20:23.470Z,100181.06
2023-02-07T06:22:53.219Z,100185.53
2023-02-07T06:25:21.891Z,100191.06
2023-02-07T06:27:50.275Z,100197.81
2023-02-07T06:30:19.074Z,100211.72
2023-02-07T06:32:47.196Z,100213.19
2023-02-07T06:35:15.714Z,100226.03
2023-02-07T06:37:44.400Z,100201.72
2023-02-07T06:40:14.942Z,100227.44
2023-02-07T06:42:43.963Z,100237.59
2023-02-07T06:45:12.551Z,100229.84
2023-02-07T06:47:41.230Z,100226.91
2023-02-07T06:50:10.351Z,100214.38
2023-02-07T06:52:38.565Z,100224.53
2023-02-07T06:55:07.392Z,100237.53
2023-02-07T06:57:37.715Z,100240.44
2023-02-07T07:00:06.629Z,100231.28
2023-02-07T07:02:34.836Z,100237.28
2023-02-07T07:05:04.030Z,100244.50
2023-02-07T07:07:32.389Z,100235.91
2023-02-07T07:10:00.790Z,100241.22
2023-02-07T07:12:29.689Z,100236.75
2023-02-07T07:14:59.085Z,100240.03
2023-02-07T07:17:27.357Z,100230.31
2023-02-07T07:19:55.433Z,100252.13
2023-02-07T07:22:23.461Z,100244.13
2023-02-07T07:24:51.560Z,100245.06
2023-02-07T07:27:19.975Z,100249.34
2023-02-07T07:29:48.149Z,100249.13
2023-02-07T07:32:32.309Z,100256.09
2023-02-07T07:35:02.723Z,100252.09
2023-02-07T07:37:31.006Z,100248.06
2023-02-07T07:39:59.795Z,100253.22
2023-02-07T07:42:28.921Z,100253.88
2023-02-07T07:44:57.276Z,100264.44
2023-02-07T07:47:28.520Z,100261.16
2023-02-07T07:49:56.884Z,100241.13
2023-02-07T07:52:25.284Z,100256.97
2023-02-07T07:54:53.767Z,100242.47
2023-02-07T07:57:22.341Z,100261.88
2023-02-07T07:59:50.854Z,100260.69
2023-02-07T08:02:19.055Z,100266.69
2023-02-07T08:04:48.806Z,100263.19
2023-02-07T08:07:17.764Z,100259.69
2023-02-07T08:09:46.460Z,100252.50
2023-02-07T08:12:15.920Z,100248.13
2023-02-07T08:14:44.318Z,100250.09
2023-02-07T08:17:13.429Z,100248.59
2023-02-07T08:19:41.907Z,100235.72
2023-02-07T08:22:14.460Z,100248.16
2023-02-07T08:24:43.357Z,100236.06
2023-02-07T08:27:11.967Z,100245.38
2023-02-07T08:29:40.430Z,100238.59
2023-02-07T08:32:08.810Z,100239.34
2023-02-07T08:34:38.296Z,100240.97
2023-02-07T08:37:07.318Z,100228.28
2023-02-07T08:39:37.696Z,100235.47
2023-02-07T08:42:08.204Z,100235.59
2023-02-07T08:44:37.103Z,100235.53
2023-02-07T08:47:06.270Z,100234.22
2023-02-07T08:49:34.681Z,100230.13
2023-02-07T08:52:03.058Z,100229.88
2023-02-07T08:54:31.233Z,100222.31
2023-02-07T08:57:01.009Z,100223.94
2023-02-07T08:59:29.326Z,100236.16
2023-02-07T09:01:57.590Z,100238.28
2023-02-07T09:04:26.999Z,100214.69
2023-02-07T09:06:55.202Z,100234.28
2023-02-07T09:09:23.373Z,100223.88
2023-02-07T09:11:51.817Z,100223.09
2023-02-07T09:14:21.680Z,100200.53
2023-02-07T09:16:49.971Z,100210.63
2023-02-07T09:19:18.299Z,100224.41
2023-02-07T09:21:46.322Z,100216.00
2023-02-07T09:24:14.497Z,100218.13
2023-02-07T09:26:42.941Z,100215.91
2023-02-07T09:29:14.339Z,100210.41
2023-02-07T09:31:44.478Z,100216.78
2023-02-07T09:34:12.627Z,100215.31
2023-02-07T09:36:40.915Z,100218.34
2023-02-07T09:39:08.951Z,100211.94
2023-02-07T09:41:43.699Z,100209.44
2023-02-07T09:44:17.452Z,100205.78
2023-02-07T09:46:49.088Z,100208.97
2023-02-07T09:49:33.424Z,100202.25
2023-02-07T09:52:05.719Z,100207.69
2023-02-07T09:54:39.557Z,100199.75
2023-02-07T09:57:15.257Z,100204.50
2023-02-07T09:59:51.665Z,100205.25
2023-02-07T10:02:26.950Z,100213.00
2023-02-07T10:04:59.966Z,100205.34
2023-02-07T10:07:27.936Z,100198.25
2023-02-07T10:09:56.514Z,100195.09
2023-02-07T10:12:46.725Z,100178.72
2023-02-07T10:15:32.884Z,100190.84
2023-02-07T10:18:22.140Z,100184.03
2023-02-07T10:21:01.167Z,100186.22
2023-02-07T10:23:40.919Z,100186.19
2023-02-07T10:26:17.580Z,100185.50
2023-02-07T10:29:21.033Z,100180.81
2023-02-07T10:31:53.679Z,100180.50
2023-02-07T10:34:25.877Z,100184.00
2023-02-07T10:36:58.111Z,100182.63
2023-02-07T10:39:32.971Z,100178.78
2023-02-07T10:42:01.245Z,100178.16
2023-02-07T10:44:29.790Z,100174.94
2023-02-07T10:47:03.024Z,100181.69
2023-02-07T10:49:36.187Z,100170.91
2023-02-07T10:52:14.887Z,100170.22
2023-02-07T10:54:52.805Z,100170.56
2023-02-07T10:57:22.314Z,100164.91
2023-02-07T10:59:51.094Z,100157.72
2023-02-07T11:02:48.430Z,100149.25
2023-02-07T11:05:37.569Z,100148.63
2023-02-07T11:08:10.166Z,100147.22
2023-02-07T11:10:41.126Z,100140.53
2023-02-07T11:13:15.647Z,100128.63
2023-02-07T11:15:53.884Z,100139.91
2023-02-07T11:18:38.093Z,100137.13
2023-02-07T11:21:09.456Z,100138.41
2023-02-07T11:23:38.151Z,100136.22
2023-02-07T11:26:07.146Z,100130.19
2023-02-07T11:28:35.522Z,100129.50
2023-02-07T11:31:08.882Z,100128.63
2023-02-07T11:33:38.634Z,100117.03
2023-02-07T11:36:32.734Z,100133.38
2023-02-07T11:39:02.217Z,100132.16
2023-02-07T11:41:32.861Z,100116.94
2023-02-07T11:44:03.585Z,100116.13
2023-02-07T11:46:36.302Z,100112.41
2023-02-07T11:49:09.462Z,100123.00
2023-02-07T11:51:40.367Z,100117.47
2023-02-07T11:54:09.938Z,100115.03
2023-02-07T11:56:40.972Z,100116.38
2023-02-07T11:59:16.001Z,100100.03
2023-02-07T12:01:45.851Z,100112.50
2023-02-07T12:04:18.197Z,100111.06
2023-02-07T12:06:54.235Z,100113.53
2023-02-07T12:09:31.938Z,100107.09
2023-02-07T12:12:04.525Z,100104.59
2023-02-07T12:14:40.838Z,100109.28
2023-02-07T12:17:16.633Z,100107.72
2023-02-07T12:19:54.193Z,100107.56
2023-02-07T12:22:30.212Z,100106.13
2023-02-07T12:25:04.535Z,100097.06
2023-02-07T12:27:38.637Z,100093.66
2023-02-07T12:30:15.995Z,100112.75
2023-02-07T12:32:55.787Z,100095.41
2023-02-07T12:35:29.752Z,100104.41
2023-02-07T12:38:01.018Z,100099.25
2023-02-07T12:40:35.353Z,100087.97
2023-02-07T12:43:11.400Z,100092.53
2023-02-07T12:45:53.225Z,100084.41
2023-02-07T12:48:31.897Z,100085.56
2023-02-07T12:51:11.034Z,100073.50
2023-02-07T12:53:58.858Z,100090.25
2023-02-07T12:56:41.771Z,100074.88
2023-02-07T12:59:21.220Z,100096.28
2023-02-07T13:01:55.020Z,100081.63
2023-02-07T13:04:49.479Z,100069.88
2023-02-07T13:07:30.771Z,100075.63
2023-02-07T13:10:12.649Z,100078.59
2023-02-07T13:12:47.349Z,100061.34
2023-02-07T13:15:26.136Z,100077.06
2023-02-07T13:18:01.560Z,100070.94
2023-02-07T13:20:43.534Z,100056.88
2023-02-07T13:23:18.280Z,100063.66
2023-02-07T13:25:51.455Z,100053.97
2023-02-07T13:28:26.656Z,100060.94
2023-02-07T13:30:57.494Z,100065.59
2023-02-07T13:33:32.316Z,100062.97
2023-02-07T13:36:07.167Z,100067.06
2023-02-07T13:39:12.930Z,100072.00
2023-02-07T13:41:51.960Z,100064.84
2023-02-07T13:44:26.601Z,100071.41
2023-02-07T13:47:11.690Z,100069.72
2023-02-07T13:49:47.703Z,100071.53
2023-02-07T13:52:22.131Z,100082.06
2023-02-07T13:54:57.886Z,100075.22
2023-02-07T13:58:00.750Z,100075.59
2023-02-07T14:00:31.113Z,100088.34
2023-02-07T14:03:01.613Z,100070.66
2023-02-07T14:05:32.061Z,100084.53
2023-02-07T14:08:03.140Z,100083.22
2023-02-07T14:10:45.785Z,100084.00
2023-02-07T14:13:32.034Z,100080.59
2023-02-07T14:16:07.287Z,100078.69
2023-02-07T14:18:42.674Z,100084.25
2023-02-07T14:21:31.337Z,100072.13
2023-02-07T14:24:04.496Z,100075.59
2023-02-07T14:26:57.586Z,100069.25
2023-02-07T14:30:02.673Z,100063.38
2023-02-07T14:32:44.365Z,100064.25
2023-02-07T14:35:31.619Z,100058.25
2023-02-07T14:38:09.993Z,100063.19
2023-02-07T14:41:08.433Z,100061.56
2023-02-07T14:44:07.397Z,100065.88
2023-02-07T14:46:41.960Z,100067.59
2023-02-07T14:49:20.317Z,100060.78
2023-02-07T14:51:51.109Z,100064.97
2023-02-07T14:54:28.110Z,100057.31
2023-02-07T14:57:04.596Z,100056.50
2023-02-07T14:59:37.764Z,100054.97
2023-02-07T15:02:30.767Z,100050.66
2023-02-07T15:05:16.729Z,100055.59
2023-02-07T15:07:47.258Z,100047.78
2023-02-07T15:10:17.444Z,100043.44
2023-02-07T15:12:45.743Z,100049.53
2023-02-07T15:15:22.131Z,100048.50
2023-02-07T15:17:51.698Z,100044.25
2023-02-07T15:20:25.053Z,100050.72
2023-02-07T15:22:56.134Z,100045.88
2023-02-07T15:25:25.195Z,100046.00
2023-02-07T15:28:09.239Z,100051.72
2023-02-07T15:30:39.493Z,100056.78
2023-02-07T15:33:24.262Z,100048.69
2023-02-07T15:35:53.813Z,100059.47
2023-02-07T15:38:25.766Z,100054.66
2023-02-07T15:40:57.113Z,100064.81
2023-02-07T15:43:29.806Z,100070.09
2023-02-07T15:46:07.741Z,100073.50
2023-02-07T15:48:48.479Z,100067.59
2023-02-07T15:51:20.919Z,100071.09
2023-02-07T15:53:56.702Z,100057.47
2023-02-07T15:56:26.084Z,100067.16
2023-02-07T15:58:58.755Z,100068.88
2023-02-07T16:01:29.944Z,100074.81
2023-02-07T16:04:00.174Z,100077.03
2023-02-07T16:06:32.728Z,100080.41
2023-02-07T16:09:04.524Z,100083.41
2023-02-07T16:11:41.458Z,100080.69
2023-02-07T16:14:22.479Z,100100.94
2023-02-07T16:16:55.127Z,100086.13
2023-02-07T16:19:26.851Z,100101.19
2023-02-07T16:22:03.220Z,100102.72
2023-02-07T16:24:36.567Z,100115.06
2023-02-07T16:27:05.870Z,100119.41
2023-02-07T16:29:37.145Z,100121.28
2023-02-07T16:32:05.818Z,100125.34
2023-02-07T16:34:34.043Z,100126.81
2023-02-07T16:37:04.395Z,100129.91
2023-02-07T16:39:32.473Z,100138.97
2023-02-07T16:42:05.068Z,100135.69
2023-02-07T16:44:36.439Z,100120.72
2023-02-07T16:47:05.240Z,100131.28
2023-02-07T16:49:34.420Z,100136.63
2023-02-07T16:52:03.893Z,100133.56
2023-02-07T16:54:32.239Z,100131.00
2023-02-07T16:57:04.048Z,100116.50
2023-02-07T16:59:33.035Z,100138.47
2023-02-07T17:02:01.426Z,100135.78
2023-02-07T17:04:29.540Z,100136.00
2023-02-07T17:06:57.818Z,100143.88
2023-02-07T17:09:27.579Z,100142.78
2023-02-07T17:11:56.428Z,100137.44
2023-02-07T17:14:25.281Z,100139.97
2023-02-07T17:16:53.253Z,100137.28
2023-02-07T17:19:24.010Z,100140.44
2023-02-07T17:21:53.526Z,100135.25
2023-02-07T17:24:21.796Z,100136.50
2023-02-07T17:26:54.597Z,100129.41
2023-02-07T17:29:23.895Z,100133.34
2023-02-07T17:31:52.730Z,100124.84
2023-02-07T17:34:21.073Z,100130.53
2023-02-07T17:36:51.205Z,100138.72
2023-02-07T17:39:20.713Z,100134.56
2023-02-07T17:41:50.639Z,100129.88
2023-02-07T17:44:23.210Z,100134.38
2023-02-07T17:46:51.587Z,100141.22
2023-02-07T17:49:20.488Z,100137.81
2023-02-07T17:51:48.861Z,100145.81
2023-02-07T17:54:17.346Z,100146.84
2023-02-07T17:56:46.115Z,100130.81
2023-02-07T17:59:25.658Z,100140.53
2023-02-07T18:01:54.256Z,100142.81
2023-02-07T18:04:23.039Z,100142.19
2023-02-07T18:06:51.124Z,100144.81
2023-02-07T18:09:21.081Z,100141.72
2023-02-07T18:11:50.053Z,100148.00
2023-02-07T18:14:19.434Z,100141.03
2023-02-07T18:16:49.618Z,100140.94
2023-02-07T18:19:20.431Z,100141.19
2023-02-07T18:21:49.898Z,100141.88
2023-02-07T18:24:18.542Z,100132.94
2023-02-07T18:26:47.236Z,100138.75
2023-02-07T18:29:16.919Z,100151.19
2023-02-07T18:31:46.192Z,100145.19
2023-02-07T18:34:17.492Z,100149.63
2023-02-07T18:36:46.789Z,100153.97
2023-02-07T18:39:16.297Z,100155.28
2023-02-07T18:41:45.718Z,100155.97
2023-02-07T18:44:14.707Z,100158.25
2023-02-07T18:46:43.073Z,100155.53
2023-02-07T18:49:13.408Z,100152.06
2023-02-07T18:51:44.963Z,100140.50
2023-02-07T18:54:13.764Z,100153.53
2023-02-07T18:56:42.473Z,100141.03
2023-02-07T18:59:12.261Z,100158.22
2023-02-07T19:01:40.892Z,100150.56
2023-02-07T19:04:10.177Z,100145.28
2023-02-07T19:06:38.876Z,100143.16
2023-02-07T19:09:10.622Z,100144.91
2023-02-07T19:11:41.222Z,100147.31
2023-02-07T19:14:15.767Z,100144.09
2023-02-07T19:16:46.498Z,100152.19
2023-02-07T19:19:16.522Z,100157.94
2023-02-07T19:21:44.847Z,100158.19
2023-02-07T19:24:19.017Z,100159.56
2023-02-07T19:26:48.002Z,100143.88
2023-02-07T19:29:18.648Z,100156.97
2023-02-07T19:31:48.082Z,100163.13
2023-02-07T19:34:17.483Z,100165.63
2023-02-07T19:36:46.861Z,100152.09
2023-02-07T19:39:19.437Z,100161.50
2023-02-07T19:41:49.288Z,100172.84
2023-02-07T19:44:20.730Z,100178.38
2023-02-07T19:46:52.683Z,100175.72
2023-02-07T19:49:20.968Z,100178.22
2023-02-07T19:51:50.587Z,100166.72
2023-02-07T19:54:20.519Z,100174.50
2023-02-07T19:56:51.209Z,100176.94
2023-02-07T19:59:19.949Z,100173.19
2023-02-07T20:01:48.153Z,100177.41
2023-02-07T20:04:16.804Z,100167.38
2023-02-07T20:06:44.971Z,100168.53
2023-02-07T20:09:13.270Z,100163.91
2023-02-07T20:11:42.963Z,100168.16
2023-02-07T20:14:11.266Z,100170.47
2023-02-07T20:16:40.224Z,100170.59
2023-02-07T20:19:09.181Z,100168.56
2023-02-07T20:21:38.347Z,100174.09
2023-02-07T20:24:07.542Z,100172.84
2023-02-07T20:26:39.145Z,100173.25
2023-02-07T20:29:11.785Z,100163.75
2023-02-07T20:31:41.114Z,100163.38
2023-02-07T20:34:09.517Z,100165.56
2023-02-07T20:36:41.421Z,100173.09
2023-02-07T20:39:12.547Z,100171.22
2023-02-07T20:41:43.362Z,100171.91
2023-02-07T20:44:16.115Z,100172.41
2023-02-07T20:46:46.594Z,100173.34
2023-02-07T20:49:17.486Z,100168.16
2023-02-07T20:51:48.733Z,100161.13
2023-02-07T20:54:18.374Z,100160.94
2023-02-07T20:56:46.705Z,100169.22
2023-02-07T20:59:18.996Z,100164.81
2023-02-07T21:01:47.789Z,100166.75
2023-02-07T21:04:15.868Z,100164.06
2023-02-07T21:06:44.959Z,100164.25
2023-02-07T21:09:14.169Z,100172.22
2023-02-07T21:11:45.216Z,100170.75
2023-02-07T21:14:18.441Z,100165.31
2023-02-07T21:16:47.048Z,100171.34
2023-02-07T21:19:17.830Z,100170.97
2023-02-07T21:21:47.135Z,100178.34
2023-02-07T21:24:16.451Z,100158.34
2023-02-07T21:26:44.717Z,100165.09
2023-02-07T21:29:13.702Z,100166.63
2023-02-07T21:31:43.380Z,100150.00
2023-02-07T21:34:13.167Z,100164.91
2023-02-07T21:36:41.468Z,100151.16
2023-02-07T21:39:12.357Z,100159.31
2023-02-07T21:41:42.360Z,100159.50
2023-02-07T21:44:11.674Z,100163.19
2023-02-07T21:46:43.350Z,100167.03
2023-02-07T21:49:14.816Z,100158.63
2023-02-07T21:51:44.725Z,100158.72
2023-02-07T21:54:12.807Z,100158.22
2023-02-07T21:56:43.523Z,100169.72
2023-02-07T21:59:14.477Z,100171.19
2023-02-07T22:01:45.020Z,100153.19
2023-02-07T22:04:14.423Z,100172.34
2023-02-07T22:06:44.293Z,100160.53
2023-02-07T22:09:14.468Z,100146.28
2023-02-07T22:11:42.765Z,100148.25
2023-02-07T22:14:12.901Z,100152.22
2023-02-07T22:16:41.954Z,100154.75
2023-02-07T22:19:17.256Z,100151.59
2023-02-07T22:21:46.086Z,100157.44
2023-02-07T22:24:16.201Z,100161.84
2023-02-07T22:26:45.611Z,100150.81
2023-02-07T22:29:14.300Z,100164.03
2023-02-07T22:31:43.148Z,100159.56
2023-02-07T22:34:14.145Z,100163.59
2023-02-07T22:36:44.779Z,100157.22
2023-02-07T22:39:14.609Z,100156.13
2023-02-07T22:41:42.650Z,100167.59
2023-02-07T22:44:10.762Z,100166.13
2023-02-07T22:46:39.486Z,100166.78
2023-02-07T22:49:07.536Z,100166.34
2023-02-07T22:51:38.491Z,100161.09
2023-02-07T22:54:09.053Z,100171.59
2023-02-07T22:56:39.056Z,100163.94
2023-02-07T22:59:08.220Z,100169.84
2023-02-07T23:01:39.112Z,100165.72
2023-02-07T23:04:09.513Z,100164.16
2023-02-07T23:06:39.053Z,100168.75
2023-02-07T23:09:07.089Z,100166.81
2023-02-07T23:11:35.524Z,100155.91
2023-02-07T23:14:03.527Z,100161.13
2023-02-07T23:16:32.346Z,100166.56
2023-02-07T23:19:07.001Z,100172.69
2023-02-07T23:21:35.152Z,100160.59
2023-02-07T23:24:04.899Z,100159.19
2023-02-07T23:26:33.247Z,100155.72
2023-02-07T23:29:01.580Z,100167.25
2023-02-07T23:31:30.091Z,100148.59
2023-02-07T23:33:58.480Z,100164.22
2023-02-07T23:36:27.226Z,100165.63
2023-02-07T23:38:55.174Z,100149.81
2023-02-07T23:41:24.725Z,100152.75
2023-02-07T23:43:52.740Z,100156.13
2023-02-07T23:46:21.193Z,100154.38
2023-02-07T23:48:49.194Z,100154.59
2023-02-07T23:51:17.334Z,100163.44
2023-02-07T23:53:46.780Z,100142.41
2023-02-07T23:56:16.811Z,100158.53
2023-02-07T23:58:47.124Z,100160.59
